sensor_id;sensor_type;location;lat;lon;timestamp;pressure;altitude;pressure_sealevel;temperature;humidity
29569;BME280;16501;51.462;14.346;2023-07-13T00:00:35;99865.16;;;23.33;51.42
29569;BME280;16501;51.462;14.346;2023-07-13T00:03:01;99863.09;;;23.34;51.60
29569;BME280;16501;51.462;14.346;2023-07-13T00:05:27;99875.25;;;23.42;52.27
29569;BME280;16501;51.462;14.346;2023-07-13T00:07:52;99881.38;;;23.39;53.47
29569;BME280;16501;51.462;14.346;2023-07-13T00:10:18;99893.78;;;23.41;52.70
29569;BME280;16501;51.462;14.346;2023-07-13T00:12:44;99884.81;;;23.37;54.05
29569;BME280;16501;51.462;14.346;2023-07-13T00:15:35;99878.72;;;23.33;55.35
29569;BME280;16501;51.462;14.346;2023-07-13T00:18:01;99877.56;;;23.28;55.94
29569;BME280;16501;51.462;14.346;2023-07-13T00:20:27;99885.38;;;23.28;55.60
29569;BME280;16501;51.462;14.346;2023-07-13T00:22:52;99880.81;;;23.25;55.95
29569;BME280;16501;51.462;14.346;2023-07-13T00:25:22;99864.03;;;23.13;55.77
29569;BME280;16501;51.462;14.346;2023-07-13T00:27:49;99856.41;;;23.08;54.87
29569;BME280;16501;51.462;14.346;2023-07-13T00:30:15;99866.50;;;23.09;54.62
29569;BME280;16501;51.462;14.346;2023-07-13T00:32:41;99846.47;;;22.94;54.34
29569;BME280;16501;51.462;14.346;2023-07-13T00:35:07;99830.81;;;22.79;55.32
29569;BME280;16501;51.462;14.346;2023-07-13T00:37:32;99856.38;;;22.93;54.50
29569;BME280;16501;51.462;14.346;2023-07-13T00:39:58;99852.94;;;22.94;53.77
29569;BME280;16501;51.462;14.346;2023-07-13T00:42:23;99841.88;;;22.75;53.67
29569;BME280;16501;51.462;14.346;2023-07-13T00:47:37;99838.06;;;22.81;54.88
29569;BME280;16501;51.462;14.346;2023-07-13T00:50:03;99841.13;;;22.75;54.18
29569;BME280;16501;51.462;14.346;2023-07-13T00:52:29;99830.41;;;22.60;54.80
29569;BME280;16501;51.462;14.346;2023-07-13T00:54:54;99848.34;;;22.68;54.54
29569;BME280;16501;51.462;14.346;2023-07-13T00:57:21;99836.31;;;22.54;53.89
29569;BME280;16501;51.462;14.346;2023-07-13T00:59:50;99822.00;;;22.47;53.77
29569;BME280;16501;51.462;14.346;2023-07-13T01:02:17;99825.84;;;22.57;54.25
29569;BME280;16501;51.462;14.346;2023-07-13T01:04:42;99825.47;;;22.53;54.50
29569;BME280;16501;51.462;14.346;2023-07-13T01:07:08;99837.06;;;22.55;55.05
29569;BME280;16501;51.462;14.346;2023-07-13T01:09:34;99862.03;;;22.54;54.67
29569;BME280;16501;51.462;14.346;2023-07-13T01:12:00;99862.00;;;22.47;54.16
29569;BME280;16501;51.462;14.346;2023-07-13T01:14:25;99863.53;;;22.48;54.33
29569;BME280;16501;51.462;14.346;2023-07-13T01:16:51;99869.25;;;22.48;54.54
29569;BME280;16501;51.462;14.346;2023-07-13T01:19:36;99856.09;;;22.45;54.94
29569;BME280;16501;51.462;14.346;2023-07-13T01:22:07;99861.63;;;22.43;55.86
29569;BME280;16501;51.462;14.346;2023-07-13T01:24:35;99826.66;;;22.13;56.23
29569;BME280;16501;51.462;14.346;2023-07-13T01:27:00;99873.78;;;22.35;56.48
29569;BME280;16501;51.462;14.346;2023-07-13T01:29:25;99856.56;;;22.20;55.93
29569;BME280;16501;51.462;14.346;2023-07-13T01:31:50;99872.19;;;22.19;55.25
29569;BME280;16501;51.462;14.346;2023-07-13T01:34:15;99874.44;;;22.13;55.15
29569;BME280;16501;51.462;14.346;2023-07-13T01:36:42;99880.94;;;22.21;55.74
29569;BME280;16501;51.462;14.346;2023-07-13T01:39:07;99888.53;;;22.18;57.35
29569;BME280;16501;51.462;14.346;2023-07-13T01:41:32;99870.75;;;22.04;58.57
29569;BME280;16501;51.462;14.346;2023-07-13T01:43:57;99869.44;;;22.06;58.62
29569;BME280;16501;51.462;14.346;2023-07-13T01:46:23;99876.63;;;21.91;57.63
29569;BME280;16501;51.462;14.346;2023-07-13T01:48:48;99903.94;;;21.79;56.35
29569;BME280;16501;51.462;14.346;2023-07-13T01:51:15;99918.16;;;21.71;56.47
29569;BME280;16501;51.462;14.346;2023-07-13T01:53:40;99906.50;;;21.61;56.42
29569;BME280;16501;51.462;14.346;2023-07-13T01:56:05;99906.06;;;21.57;55.33
29569;BME280;16501;51.462;14.346;2023-07-13T01:58:33;99913.78;;;21.70;55.36
29569;BME280;16501;51.462;14.346;2023-07-13T02:00:58;99902.41;;;21.78;56.17
29569;BME280;16501;51.462;14.346;2023-07-13T02:03:23;99896.34;;;21.81;57.56
29569;BME280;16501;51.462;14.346;2023-07-13T02:05:49;99892.59;;;21.94;57.98
29569;BME280;16501;51.462;14.346;2023-07-13T02:08:14;99871.47;;;21.90;58.29
29569;BME280;16501;51.462;14.346;2023-07-13T02:10:39;99860.56;;;21.80;58.02
29569;BME280;16501;51.462;14.346;2023-07-13T02:13:06;99852.22;;;21.82;58.43
29569;BME280;16501;51.462;14.346;2023-07-13T02:15:31;99868.00;;;21.83;58.32
29569;BME280;16501;51.462;14.346;2023-07-13T02:17:57;99859.41;;;21.76;57.74
29569;BME280;16501;51.462;14.346;2023-07-13T02:20:23;99866.22;;;21.73;57.88
29569;BME280;16501;51.462;14.346;2023-07-13T02:22:48;99870.81;;;21.76;57.59
29569;BME280;16501;51.462;14.346;2023-07-13T02:25:14;99868.53;;;21.74;57.97
29569;BME280;16501;51.462;14.346;2023-07-13T02:27:39;99871.22;;;21.80;58.53
29569;BME280;16501;51.462;14.346;2023-07-13T02:30:05;99863.38;;;21.73;58.73
29569;BME280;16501;51.462;14.346;2023-07-13T02:32:30;99870.25;;;21.77;58.71
29569;BME280;16501;51.462;14.346;2023-07-13T02:34:55;99855.69;;;21.60;58.71
29569;BME280;16501;51.462;14.346;2023-07-13T02:37:21;99877.38;;;21.63;59.11
29569;BME280;16501;51.462;14.346;2023-07-13T02:39:46;99874.88;;;21.59;58.68
29569;BME280;16501;51.462;14.346;2023-07-13T02:42:13;99864.47;;;21.41;58.37
29569;BME280;16501;51.462;14.346;2023-07-13T02:44:38;99869.97;;;21.39;58.55
29569;BME280;16501;51.462;14.346;2023-07-13T02:47:03;99867.13;;;21.39;58.21
29569;BME280;16501;51.462;14.346;2023-07-13T02:49:28;99875.53;;;21.44;58.51
29569;BME280;16501;51.462;14.346;2023-07-13T02:51:54;99884.91;;;21.32;59.14
29569;BME280;16501;51.462;14.346;2023-07-13T02:54:19;99884.56;;;21.35;59.81
29569;BME280;16501;51.462;14.346;2023-07-13T02:56:44;99869.84;;;21.23;59.43
29569;BME280;16501;51.462;14.346;2023-07-13T02:59:09;99875.91;;;21.20;61.11
29569;BME280;16501;51.462;14.346;2023-07-13T03:01:35;99877.56;;;21.15;60.45
29569;BME280;16501;51.462;14.346;2023-07-13T03:04:01;99874.69;;;21.07;60.62
29569;BME280;16501;51.462;14.346;2023-07-13T03:06:26;99891.47;;;21.19;60.73
29569;BME280;16501;51.462;14.346;2023-07-13T03:08:55;99885.94;;;21.13;61.01
29569;BME280;16501;51.462;14.346;2023-07-13T03:11:20;99885.84;;;21.05;61.73
29569;BME280;16501;51.462;14.346;2023-07-13T03:13:46;99886.34;;;20.96;62.03
29569;BME280;16501;51.462;14.346;2023-07-13T03:16:12;99867.44;;;20.85;61.98
29569;BME280;16501;51.462;14.346;2023-07-13T03:18:39;99885.28;;;20.86;63.06
29569;BME280;16501;51.462;14.346;2023-07-13T03:21:04;99897.03;;;20.82;63.04
29569;BME280;16501;51.462;14.346;2023-07-13T03:23:30;99899.13;;;20.82;62.67
29569;BME280;16501;51.462;14.346;2023-07-13T03:26:07;99912.28;;;20.85;62.37
29569;BME280;16501;51.462;14.346;2023-07-13T03:28:33;99910.31;;;20.80;62.41
29569;BME280;16501;51.462;14.346;2023-07-13T03:31:00;99906.06;;;20.73;61.94
29569;BME280;16501;51.462;14.346;2023-07-13T03:33:25;99909.03;;;20.67;62.22
29569;BME280;16501;51.462;14.346;2023-07-13T03:35:51;99913.19;;;20.66;62.59
29569;BME280;16501;51.462;14.346;2023-07-13T03:38:16;99909.16;;;20.62;63.36
29569;BME280;16501;51.462;14.346;2023-07-13T03:40:42;99916.59;;;20.65;63.60
29569;BME280;16501;51.462;14.346;2023-07-13T03:43:07;99921.84;;;20.61;63.35
29569;BME280;16501;51.462;14.346;2023-07-13T03:45:32;99926.00;;;20.60;64.77
29569;BME280;16501;51.462;14.346;2023-07-13T03:47:57;99923.28;;;20.54;65.13
29569;BME280;16501;51.462;14.346;2023-07-13T03:50:23;99925.94;;;20.52;64.65
29569;BME280;16501;51.462;14.346;2023-07-13T03:52:48;99918.34;;;20.54;64.29
29569;BME280;16501;51.462;14.346;2023-07-13T03:55:13;99908.75;;;20.44;62.72
29569;BME280;16501;51.462;14.346;2023-07-13T03:57:38;99893.56;;;20.28;62.05
29569;BME280;16501;51.462;14.346;2023-07-13T04:00:04;99918.16;;;20.39;62.01
29569;BME280;16501;51.462;14.346;2023-07-13T04:02:31;99934.81;;;20.48;62.05
29569;BME280;16501;51.462;14.346;2023-07-13T04:04:56;99928.47;;;20.42;62.11
29569;BME280;16501;51.462;14.346;2023-07-13T04:07:21;99937.22;;;20.44;62.11
29569;BME280;16501;51.462;14.346;2023-07-13T04:09:46;99924.00;;;20.33;62.58
29569;BME280;16501;51.462;14.346;2023-07-13T04:12:12;99941.06;;;20.33;63.09
29569;BME280;16501;51.462;14.346;2023-07-13T04:14:38;99935.38;;;20.20;63.23
29569;BME280;16501;51.462;14.346;2023-07-13T04:17:03;99959.03;;;20.28;63.67
29569;BME280;16501;51.462;14.346;2023-07-13T04:19:29;99949.53;;;20.26;63.77
29569;BME280;16501;51.462;14.346;2023-07-13T04:21:54;99925.00;;;20.09;65.07
29569;BME280;16501;51.462;14.346;2023-07-13T04:24:19;99924.13;;;20.14;65.75
29569;BME280;16501;51.462;14.346;2023-07-13T04:26:44;99918.34;;;20.07;65.54
29569;BME280;16501;51.462;14.346;2023-07-13T04:29:10;99939.66;;;20.27;65.74
29569;BME280;16501;51.462;14.346;2023-07-13T04:31:35;99952.34;;;20.39;66.18
29569;BME280;16501;51.462;14.346;2023-07-13T04:34:00;99949.06;;;20.48;65.58
29569;BME280;16501;51.462;14.346;2023-07-13T04:36:26;99934.50;;;20.39;65.92
29569;BME280;16501;51.462;14.346;2023-07-13T04:38:54;99970.50;;;20.63;67.25
29569;BME280;16501;51.462;14.346;2023-07-13T04:41:20;99967.31;;;20.66;66.90
29569;BME280;16501;51.462;14.346;2023-07-13T04:43:46;99963.78;;;20.60;66.58
29569;BME280;16501;51.462;14.346;2023-07-13T04:46:13;99954.06;;;20.56;66.59
29569;BME280;16501;51.462;14.346;2023-07-13T04:48:38;99978.16;;;20.68;66.89
29569;BME280;16501;51.462;14.346;2023-07-13T04:51:04;99958.44;;;20.57;69.00
29569;BME280;16501;51.462;14.346;2023-07-13T04:53:30;99974.34;;;20.65;68.59
29569;BME280;16501;51.462;14.346;2023-07-13T04:55:55;99973.56;;;20.65;67.64
29569;BME280;16501;51.462;14.346;2023-07-13T04:58:21;99973.56;;;20.65;66.60
29569;BME280;16501;51.462;14.346;2023-07-13T05:00:47;99965.25;;;20.53;66.49
29569;BME280;16501;51.462;14.346;2023-07-13T05:03:12;99978.81;;;20.61;66.56
29569;BME280;16501;51.462;14.346;2023-07-13T05:05:38;99974.34;;;20.65;67.09
29569;BME280;16501;51.462;14.346;2023-07-13T05:08:03;99934.25;;;20.50;68.11
29569;BME280;16501;51.462;14.346;2023-07-13T05:10:28;99965.22;;;20.67;68.07
29569;BME280;16501;51.462;14.346;2023-07-13T05:12:54;99967.97;;;20.73;68.80
29569;BME280;16501;51.462;14.346;2023-07-13T05:15:21;99981.75;;;20.82;69.50
29569;BME280;16501;51.462;14.346;2023-07-13T05:17:47;99960.59;;;20.77;69.16
29569;BME280;16501;51.462;14.346;2023-07-13T05:20:13;99982.91;;;21.00;69.22
29569;BME280;16501;51.462;14.346;2023-07-13T05:22:38;99973.03;;;21.01;66.22
29569;BME280;16501;51.462;14.346;2023-07-13T05:25:07;99990.56;;;21.05;65.52
29569;BME280;16501;51.462;14.346;2023-07-13T05:27:33;99988.59;;;21.00;66.71
29569;BME280;16501;51.462;14.346;2023-07-13T05:29:59;99980.72;;;20.93;67.16
29569;BME280;16501;51.462;14.346;2023-07-13T05:32:24;99990.13;;;21.01;67.17
29569;BME280;16501;51.462;14.346;2023-07-13T05:34:49;100013.38;;;20.91;68.44
29569;BME280;16501;51.462;14.346;2023-07-13T05:37:14;100000.47;;;20.90;67.97
29569;BME280;16501;51.462;14.346;2023-07-13T05:39:40;100009.91;;;20.85;68.43
29569;BME280;16501;51.462;14.346;2023-07-13T05:42:05;100010.97;;;20.96;67.82
29569;BME280;16501;51.462;14.346;2023-07-13T05:44:31;100014.03;;;20.98;67.49
29569;BME280;16501;51.462;14.346;2023-07-13T05:46:56;100007.91;;;20.94;67.09
29569;BME280;16501;51.462;14.346;2023-07-13T05:49:22;100000.50;;;21.12;66.72
29569;BME280;16501;51.462;14.346;2023-07-13T05:51:47;100006.97;;;21.33;65.43
29569;BME280;16501;51.462;14.346;2023-07-13T05:54:12;100001.63;;;21.29;64.10
29569;BME280;16501;51.462;14.346;2023-07-13T05:56:37;100014.28;;;21.42;62.98
29569;BME280;16501;51.462;14.346;2023-07-13T05:59:03;100014.28;;;21.42;62.77
29569;BME280;16501;51.462;14.346;2023-07-13T06:01:29;100007.47;;;21.45;62.56
29569;BME280;16501;51.462;14.346;2023-07-13T06:03:55;100017.06;;;21.69;62.34
29569;BME280;16501;51.462;14.346;2023-07-13T06:06:20;100013.06;;;21.72;62.22
29569;BME280;16501;51.462;14.346;2023-07-13T06:08:45;100005.75;;;21.63;62.43
29569;BME280;16501;51.462;14.346;2023-07-13T06:11:16;100003.19;;;21.73;62.36
29569;BME280;16501;51.462;14.346;2023-07-13T06:13:42;100005.34;;;21.80;61.54
29569;BME280;16501;51.462;14.346;2023-07-13T06:16:08;100013.75;;;22.14;61.51
29569;BME280;16501;51.462;14.346;2023-07-13T06:18:34;100000.38;;;22.01;61.12
29569;BME280;16501;51.462;14.346;2023-07-13T06:21:01;100011.66;;;21.86;61.52
29569;BME280;16501;51.462;14.346;2023-07-13T06:23:30;100001.16;;;21.81;62.61
29569;BME280;16501;51.462;14.346;2023-07-13T06:25:55;100006.00;;;21.65;60.92
29569;BME280;16501;51.462;14.346;2023-07-13T06:28:21;99973.97;;;21.38;61.11
29569;BME280;16501;51.462;14.346;2023-07-13T06:30:46;99999.59;;;21.51;62.32
29569;BME280;16501;51.462;14.346;2023-07-13T06:33:12;99998.31;;;21.39;62.77
29569;BME280;16501;51.462;14.346;2023-07-13T06:35:37;100004.94;;;21.76;62.35
29569;BME280;16501;51.462;14.346;2023-07-13T06:38:02;100015.59;;;22.04;61.75
29569;BME280;16501;51.462;14.346;2023-07-13T06:40:27;100010.16;;;22.14;60.29
29569;BME280;16501;51.462;14.346;2023-07-13T06:42:54;100007.91;;;22.20;58.47
29569;BME280;16501;51.462;14.346;2023-07-13T06:45:19;100005.78;;;22.20;59.23
29569;BME280;16501;51.462;14.346;2023-07-13T06:47:44;99988.03;;;22.35;59.22
29569;BME280;16501;51.462;14.346;2023-07-13T06:50:09;100009.53;;;22.73;59.59
29569;BME280;16501;51.462;14.346;2023-07-13T06:52:35;100008.94;;;22.67;58.13
29569;BME280;16501;51.462;14.346;2023-07-13T06:55:00;100019.00;;;22.60;56.84
29569;BME280;16501;51.462;14.346;2023-07-13T06:57:25;100010.06;;;22.64;58.62
29569;BME280;16501;51.462;14.346;2023-07-13T06:59:51;100017.75;;;22.76;57.85
29569;BME280;16501;51.462;14.346;2023-07-13T07:02:16;100018.13;;;22.81;56.92
29569;BME280;16501;51.462;14.346;2023-07-13T07:04:42;100021.84;;;23.04;56.56
29569;BME280;16501;51.462;14.346;2023-07-13T07:07:07;100023.72;;;22.94;56.00
29569;BME280;16501;51.462;14.346;2023-07-13T07:09:32;100034.00;;;22.97;54.34
29569;BME280;16501;51.462;14.346;2023-07-13T07:11:57;100032.44;;;22.88;53.99
29569;BME280;16501;51.462;14.346;2023-07-13T07:14:23;100043.63;;;23.15;56.00
29569;BME280;16501;51.462;14.346;2023-07-13T07:16:49;100038.94;;;23.48;56.66
29569;BME280;16501;51.462;14.346;2023-07-13T07:19:15;100045.22;;;23.54;54.84
29569;BME280;16501;51.462;14.346;2023-07-13T07:21:40;100034.13;;;23.28;53.78
29569;BME280;16501;51.462;14.346;2023-07-13T07:24:06;100049.19;;;23.28;54.17
29569;BME280;16501;51.462;14.346;2023-07-13T07:26:31;100042.50;;;23.26;53.90
29569;BME280;16501;51.462;14.346;2023-07-13T07:28:56;100044.06;;;23.34;53.14
29569;BME280;16501;51.462;14.346;2023-07-13T07:31:22;100036.44;;;23.52;52.47
29569;BME280;16501;51.462;14.346;2023-07-13T07:33:47;100038.94;;;23.64;52.38
29569;BME280;16501;51.462;14.346;2023-07-13T07:36:14;100048.91;;;24.01;50.10
29569;BME280;16501;51.462;14.346;2023-07-13T07:38:40;100049.28;;;24.13;49.02
29569;BME280;16501;51.462;14.346;2023-07-13T07:41:05;100053.69;;;23.99;47.99
29569;BME280;16501;51.462;14.346;2023-07-13T07:43:31;100055.97;;;24.08;48.95
29569;BME280;16501;51.462;14.346;2023-07-13T07:45:57;100056.53;;;23.99;47.18
29569;BME280;16501;51.462;14.346;2023-07-13T07:48:22;100046.03;;;23.94;48.27
29569;BME280;16501;51.462;14.346;2023-07-13T07:50:48;100053.66;;;23.76;48.09
29569;BME280;16501;51.462;14.346;2023-07-13T07:53:13;100060.13;;;23.76;48.64
29569;BME280;16501;51.462;14.346;2023-07-13T07:55:39;100046.00;;;23.78;48.69
29569;BME280;16501;51.462;14.346;2023-07-13T07:58:05;100057.66;;;23.72;49.20
29569;BME280;16501;51.462;14.346;2023-07-13T08:00:31;100049.06;;;23.57;51.00
29569;BME280;16501;51.462;14.346;2023-07-13T08:02:58;100054.94;;;23.44;50.52
29569;BME280;16501;51.462;14.346;2023-07-13T08:05:23;100047.69;;;23.43;50.16
29569;BME280;16501;51.462;14.346;2023-07-13T08:07:49;100059.38;;;23.60;48.25
29569;BME280;16501;51.462;14.346;2023-07-13T08:10:16;100067.81;;;23.97;48.05
29569;BME280;16501;51.462;14.346;2023-07-13T08:12:42;100060.13;;;24.38;47.71
29569;BME280;16501;51.462;14.346;2023-07-13T08:15:11;100057.78;;;24.67;47.60
29569;BME280;16501;51.462;14.346;2023-07-13T08:17:37;100052.00;;;24.82;45.62
29569;BME280;16501;51.462;14.346;2023-07-13T08:20:02;100065.38;;;24.80;44.66
29569;BME280;16501;51.462;14.346;2023-07-13T08:22:28;100071.50;;;24.84;44.58
29569;BME280;16501;51.462;14.346;2023-07-13T08:24:53;100058.13;;;24.79;43.30
29569;BME280;16501;51.462;14.346;2023-07-13T08:27:23;100051.59;;;24.86;44.69
29569;BME280;16501;51.462;14.346;2023-07-13T08:29:48;100065.25;;;25.11;44.63
29569;BME280;16501;51.462;14.346;2023-07-13T08:32:14;100054.69;;;25.21;45.73
29569;BME280;16501;51.462;14.346;2023-07-13T08:34:39;100060.88;;;25.43;43.63
29569;BME280;16501;51.462;14.346;2023-07-13T08:37:05;100058.94;;;25.78;40.88
29569;BME280;16501;51.462;14.346;2023-07-13T08:39:31;100057.34;;;25.85;40.60
29569;BME280;16501;51.462;14.346;2023-07-13T08:42:01;100057.59;;;26.04;39.23
29569;BME280;16501;51.462;14.346;2023-07-13T08:47:21;100066.41;;;25.48;38.96
29569;BME280;16501;51.462;14.346;2023-07-13T08:49:48;100065.91;;;25.34;39.68
29569;BME280;16501;51.462;14.346;2023-07-13T08:52:29;100059.47;;;25.18;40.12
29569;BME280;16501;51.462;14.346;2023-07-13T08:54:57;100056.00;;;25.20;39.86
29569;BME280;16501;51.462;14.346;2023-07-13T08:57:29;100080.78;;;25.40;40.80
29569;BME280;16501;51.462;14.346;2023-07-13T08:59:56;100075.44;;;25.45;40.33
29569;BME280;16501;51.462;14.346;2023-07-13T09:02:45;100066.00;;;25.52;40.38
29569;BME280;16501;51.462;14.346;2023-07-13T09:05:25;100058.88;;;25.61;40.45
29569;BME280;16501;51.462;14.346;2023-07-13T09:08:31;100063.13;;;25.52;39.51
29569;BME280;16501;51.462;14.346;2023-07-13T09:11:21;100059.69;;;25.78;41.58
29569;BME280;16501;51.462;14.346;2023-07-13T09:13:57;100057.97;;;25.75;38.86
29569;BME280;16501;51.462;14.346;2023-07-13T09:16:25;100067.34;;;25.51;37.99
29569;BME280;16501;51.462;14.346;2023-07-13T09:18:54;100070.88;;;25.34;38.08
29569;BME280;16501;51.462;14.346;2023-07-13T09:21:29;100060.09;;;25.75;37.71
29569;BME280;16501;51.462;14.346;2023-07-13T09:23:59;100064.38;;;26.17;38.39
29569;BME280;16501;51.462;14.346;2023-07-13T09:26:28;100054.06;;;26.31;37.23
29569;BME280;16501;51.462;14.346;2023-07-13T09:28:59;100060.00;;;26.50;36.77
29569;BME280;16501;51.462;14.346;2023-07-13T09:31:39;100072.41;;;26.18;37.16
29569;BME280;16501;51.462;14.346;2023-07-13T09:34:10;100069.72;;;25.95;37.75
29569;BME280;16501;51.462;14.346;2023-07-13T09:36:36;100079.38;;;25.82;38.69
29569;BME280;16501;51.462;14.346;2023-07-13T09:39:10;100072.91;;;25.49;38.39
29569;BME280;16501;51.462;14.346;2023-07-13T09:41:54;100071.94;;;25.46;39.65
29569;BME280;16501;51.462;14.346;2023-07-13T09:44:34;100087.34;;;25.33;39.88
29569;BME280;16501;51.462;14.346;2023-07-13T09:47:00;100088.88;;;25.34;39.01
29569;BME280;16501;51.462;14.346;2023-07-13T09:49:31;100063.09;;;25.19;39.01
29569;BME280;16501;51.462;14.346;2023-07-13T09:52:04;100082.16;;;25.39;39.77
29569;BME280;16501;51.462;14.346;2023-07-13T09:54:33;100085.44;;;25.36;40.22
29569;BME280;16501;51.462;14.346;2023-07-13T09:57:00;100087.28;;;25.74;40.25
29569;BME280;16501;51.462;14.346;2023-07-13T09:59:35;100086.56;;;25.99;41.87
29569;BME280;16501;51.462;14.346;2023-07-13T10:02:34;100095.50;;;26.45;38.86
29569;BME280;16501;51.462;14.346;2023-07-13T10:05:11;100090.94;;;26.25;39.32
29569;BME280;16501;51.462;14.346;2023-07-13T10:07:43;100085.59;;;25.96;39.28
29569;BME280;16501;51.462;14.346;2023-07-13T10:10:18;100090.84;;;25.57;40.21
29569;BME280;16501;51.462;14.346;2023-07-13T10:12:45;100092.53;;;25.60;41.07
29569;BME280;16501;51.462;14.346;2023-07-13T10:15:16;100083.09;;;25.42;40.98
29569;BME280;16501;51.462;14.346;2023-07-13T10:17:43;100102.91;;;25.55;41.43
29569;BME280;16501;51.462;14.346;2023-07-13T10:20:09;100100.69;;;25.71;41.66
29569;BME280;16501;51.462;14.346;2023-07-13T10:23:02;100068.94;;;25.69;41.46
29569;BME280;16501;51.462;14.346;2023-07-13T10:25:32;100101.44;;;26.05;40.45
29569;BME280;16501;51.462;14.346;2023-07-13T10:28:02;100093.59;;;26.23;39.25
29569;BME280;16501;51.462;14.346;2023-07-13T10:30:34;100093.13;;;26.34;39.54
29569;BME280;16501;51.462;14.346;2023-07-13T10:33:02;100103.88;;;26.51;38.88
29569;BME280;16501;51.462;14.346;2023-07-13T10:35:30;100104.34;;;26.65;39.35
29569;BME280;16501;51.462;14.346;2023-07-13T10:38:07;100093.66;;;26.75;38.08
29569;BME280;16501;51.462;14.346;2023-07-13T10:40:56;100098.59;;;27.00;37.40
29569;BME280;16501;51.462;14.346;2023-07-13T10:43:28;100089.59;;;26.96;37.05
29569;BME280;16501;51.462;14.346;2023-07-13T10:45:57;100088.25;;;26.97;36.57
29569;BME280;16501;51.462;14.346;2023-07-13T10:48:24;100098.94;;;26.86;36.44
29569;BME280;16501;51.462;14.346;2023-07-13T10:50:51;100085.13;;;26.67;37.72
29569;BME280;16501;51.462;14.346;2023-07-13T10:53:20;100080.06;;;26.76;37.50
29569;BME280;16501;51.462;14.346;2023-07-13T11:01:07;100097.22;;;26.83;38.11
29569;BME280;16501;51.462;14.346;2023-07-13T11:03:38;100097.22;;;26.66;38.62
29569;BME280;16501;51.462;14.346;2023-07-13T11:06:13;100084.19;;;26.47;39.34
29569;BME280;16501;51.462;14.346;2023-07-13T11:18:47;100083.84;;;25.43;40.16
29569;BME280;16501;51.462;14.346;2023-07-13T11:21:18;100091.56;;;25.25;40.42
29569;BME280;16501;51.462;14.346;2023-07-13T11:23:51;100076.38;;;25.07;40.81
29569;BME280;16501;51.462;14.346;2023-07-13T11:26:40;100096.00;;;25.18;40.48
29569;BME280;16501;51.462;14.346;2023-07-13T11:31:40;100099.63;;;25.26;41.04
29569;BME280;16501;51.462;14.346;2023-07-13T11:34:15;100103.84;;;25.25;40.73
29569;BME280;16501;51.462;14.346;2023-07-13T11:36:42;100096.28;;;25.05;40.69
29569;BME280;16501;51.462;14.346;2023-07-13T11:39:20;100096.09;;;24.95;41.78
29569;BME280;16501;51.462;14.346;2023-07-13T11:41:58;100105.00;;;25.14;42.10
29569;BME280;16501;51.462;14.346;2023-07-13T11:44:27;100102.34;;;25.09;41.74
29569;BME280;16501;51.462;14.346;2023-07-13T11:46:59;100095.66;;;25.06;41.49
29569;BME280;16501;51.462;14.346;2023-07-13T11:49:32;100098.53;;;25.06;42.88
29569;BME280;16501;51.462;14.346;2023-07-13T11:52:04;100102.88;;;25.22;43.44
29569;BME280;16501;51.462;14.346;2023-07-13T11:54:41;100083.25;;;25.03;42.22
29569;BME280;16501;51.462;14.346;2023-07-13T11:57:32;100080.06;;;24.92;40.13
29569;BME280;16501;51.462;14.346;2023-07-13T12:00:09;100104.25;;;25.06;41.74
29569;BME280;16501;51.462;14.346;2023-07-13T12:02:40;100109.59;;;25.10;43.34
29569;BME280;16501;51.462;14.346;2023-07-13T12:05:10;100100.66;;;25.06;41.85
29569;BME280;16501;51.462;14.346;2023-07-13T12:07:37;100103.88;;;25.10;41.32
29569;BME280;16501;51.462;14.346;2023-07-13T12:10:26;100100.28;;;25.01;40.92
29569;BME280;16501;51.462;14.346;2023-07-13T12:13:08;100099.84;;;25.13;40.87
29569;BME280;16501;51.462;14.346;2023-07-13T12:18:02;100091.34;;;25.38;41.74
29569;BME280;16501;51.462;14.346;2023-07-13T12:20:33;100086.84;;;25.52;41.23
29569;BME280;16501;51.462;14.346;2023-07-13T12:23:05;100089.63;;;25.68;41.44
29569;BME280;16501;51.462;14.346;2023-07-13T12:25:31;100086.22;;;25.62;40.00
29569;BME280;16501;51.462;14.346;2023-07-13T12:27:56;100089.88;;;25.62;40.88
29569;BME280;16501;51.462;14.346;2023-07-13T12:30:31;100084.22;;;25.47;39.64
29569;BME280;16501;51.462;14.346;2023-07-13T12:33:06;100085.63;;;25.63;39.51
29569;BME280;16501;51.462;14.346;2023-07-13T12:35:42;100087.25;;;25.49;38.78
29569;BME280;16501;51.462;14.346;2023-07-13T12:38:10;100081.69;;;25.51;38.62
29569;BME280;16501;51.462;14.346;2023-07-13T12:40:35;100083.81;;;25.75;39.12
29569;BME280;16501;51.462;14.346;2023-07-13T12:43:02;100079.69;;;25.94;37.28
29569;BME280;16501;51.462;14.346;2023-07-13T12:45:30;100080.06;;;26.15;37.19
29569;BME280;16501;51.462;14.346;2023-07-13T12:48:04;100075.03;;;26.59;38.10
29569;BME280;16501;51.462;14.346;2023-07-13T12:50:38;100073.53;;;26.93;37.35
29569;BME280;16501;51.462;14.346;2023-07-13T12:53:12;100062.88;;;26.68;36.17
29569;BME280;16501;51.462;14.346;2023-07-13T12:55:50;100064.25;;;26.84;37.23
29569;BME280;16501;51.462;14.346;2023-07-13T12:58:40;100065.09;;;26.95;36.58
29569;BME280;16501;51.462;14.346;2023-07-13T13:01:27;100059.06;;;27.00;35.35
29569;BME280;16501;51.462;14.346;2023-07-13T13:03:53;100041.91;;;27.20;35.30
29569;BME280;16501;51.462;14.346;2023-07-13T13:06:28;100052.47;;;27.35;36.10
29569;BME280;16501;51.462;14.346;2023-07-13T13:08:56;100034.19;;;27.40;35.92
29569;BME280;16501;51.462;14.346;2023-07-13T13:11:23;100041.06;;;27.64;35.21
29569;BME280;16501;51.462;14.346;2023-07-13T13:13:50;100044.66;;;27.45;35.28
29569;BME280;16501;51.462;14.346;2023-07-13T13:18:50;100035.38;;;26.92;37.79